createdAt,value
2022-12-21T00:02:10.601Z,4.90
2022-12-21T00:04:37.321Z,4.80
2022-12-21T00:07:04.108Z,4.80
2022-12-21T00:09:30.711Z,4.80
2022-12-21T00:11:57.399Z,4.80
2022-12-21T00:14:24.006Z,4.80
2022-12-21T00:16:50.701Z,4.80
2022-12-21T00:19:17.402Z,4.80
2022-12-21T00:21:44.171Z,4.80
2022-12-21T00:24:10.957Z,4.70
2022-12-21T00:26:38.181Z,4.80
2022-12-21T00:29:05.036Z,4.70
2022-12-21T00:31:33.015Z,4.70
2022-12-21T00:34:00.671Z,4.70
2022-12-21T00:36:28.161Z,4.70
2022-12-21T00:38:55.170Z,4.70
2022-12-21T00:41:22.770Z,4.70
2022-12-21T00:43:50.591Z,4.70
2022-12-21T00:46:18.656Z,7.00
2022-12-21T00:48:45.739Z,4.70
2022-12-21T00:51:13.710Z,4.70
2022-12-21T00:53:40.654Z,4.70
2022-12-21T00:56:07.898Z,4.70
2022-12-21T00:58:35.134Z,4.70
2022-12-21T01:01:04.811Z,4.70
2022-12-21T01:03:31.594Z,4.70
2022-12-21T01:05:58.313Z,4.70
2022-12-21T01:08:25.852Z,4.70
2022-12-21T01:11:02.685Z,4.70
2022-12-21T01:13:29.838Z,4.70
2022-12-21T01:15:56.740Z,5.50
2022-12-21T01:18:23.751Z,4.60
2022-12-21T01:20:51.953Z,4.70
2022-12-21T01:23:22.061Z,4.70
2022-12-21T01:25:49.075Z,4.70
2022-12-21T01:28:15.827Z,7.80
2022-12-21T01:30:43.086Z,4.70
2022-12-21T01:33:14.204Z,4.70
2022-12-21T01:35:41.387Z,4.70
2022-12-21T01:38:08.238Z,4.70
2022-12-21T01:40:34.920Z,4.70
2022-12-21T01:43:01.532Z,4.70
2022-12-21T01:45:33.136Z,4.70
2022-12-21T01:47:59.870Z,4.60
2022-12-21T01:50:36.071Z,4.70
2022-12-21T01:53:16.584Z,4.70
2022-12-21T01:55:44.075Z,4.70
2022-12-21T01:58:10.857Z,4.70
2022-12-21T02:00:39.282Z,6.30
2022-12-21T02:03:08.016Z,4.70
2022-12-21T02:05:41.207Z,4.70
2022-12-21T02:08:07.786Z,4.70
2022-12-21T02:10:34.440Z,4.70
2022-12-21T02:13:02.375Z,7.20
2022-12-21T02:15:36.837Z,4.70
2022-12-21T02:18:11.562Z,4.70
2022-12-21T02:20:56.885Z,4.70
2022-12-21T02:23:42.365Z,4.70
2022-12-21T02:26:23.339Z,4.80
2022-12-21T02:29:04.063Z,4.80
2022-12-21T02:31:40.272Z,4.80
2022-12-21T02:34:10.560Z,4.90
2022-12-21T02:36:40.208Z,4.90
2022-12-21T02:39:19.005Z,4.90
2022-12-21T02:41:52.641Z,4.90
2022-12-21T02:44:26.245Z,4.90
2022-12-21T02:47:03.267Z,4.90
2022-12-21T02:49:39.040Z,4.80
2022-12-21T02:52:08.411Z,4.90
2022-12-21T02:54:35.761Z,4.90
2022-12-21T02:57:02.353Z,4.90
2022-12-21T02:59:30.186Z,4.80
2022-12-21T03:02:05.117Z,4.80
2022-12-21T03:04:51.185Z,4.80
2022-12-21T03:07:23.585Z,4.80
2022-12-21T03:09:53.179Z,4.90
2022-12-21T03:12:52.306Z,4.90
2022-12-21T03:15:20.702Z,4.80
2022-12-21T03:18:08.756Z,5.30
2022-12-21T03:21:11.081Z,4.80
2022-12-21T03:23:41.343Z,4.80
2022-12-21T03:26:07.949Z,4.80
2022-12-21T03:28:36.007Z,4.80
2022-12-21T03:31:07.431Z,4.80
2022-12-21T03:33:37.420Z,4.80
2022-12-21T03:36:04.055Z,4.80
2022-12-21T03:38:36.379Z,7.70
2022-12-21T03:41:04.815Z,4.80
2022-12-21T03:43:35.563Z,4.80
2022-12-21T03:46:03.513Z,4.90
2022-12-21T03:48:30.076Z,4.80
2022-12-21T03:50:59.847Z,4.80
2022-12-21T03:53:45.085Z,4.90
2022-12-21T03:56:14.688Z,4.90
2022-12-21T03:58:41.324Z,4.80
2022-12-21T04:01:28.316Z,4.80
2022-12-21T04:03:58.637Z,4.90
2022-12-21T04:06:27.557Z,5.00
2022-12-21T04:08:54.430Z,4.90
2022-12-21T04:11:39.653Z,4.90
2022-12-21T04:14:06.312Z,5.00
2022-12-21T04:16:32.963Z,5.00
2022-12-21T04:19:18.390Z,5.00
2022-12-21T04:21:44.988Z,5.10
2022-12-21T04:24:30.179Z,5.00
2022-12-21T04:27:32.045Z,5.10
2022-12-21T04:29:58.788Z,5.10
2022-12-21T04:32:25.636Z,5.10
2022-12-21T04:34:52.437Z,5.10
2022-12-21T04:37:36.634Z,5.10
2022-12-21T04:40:04.431Z,5.10
2022-12-21T04:42:31.154Z,5.10
2022-12-21T04:44:57.844Z,5.10
2022-12-21T04:47:24.525Z,5.10
2022-12-21T04:49:51.537Z,5.10
2022-12-21T04:52:18.122Z,5.10
2022-12-21T04:54:44.805Z,5.10
2022-12-21T04:57:11.380Z,5.10
2022-12-21T04:59:37.946Z,5.10
2022-12-21T05:02:05.028Z,5.10
2022-12-21T05:04:31.702Z,5.10
2022-12-21T05:06:58.386Z,5.10
2022-12-21T05:11:52.815Z,5.10
2022-12-21T05:14:19.419Z,5.10
2022-12-21T05:16:46.033Z,5.00
2022-12-21T05:19:12.985Z,5.00
2022-12-21T05:21:39.705Z,5.00
2022-12-21T05:24:06.543Z,5.00
2022-12-21T05:26:33.130Z,5.00
2022-12-21T05:29:00.493Z,5.00
2022-12-21T05:31:27.140Z,5.00
2022-12-21T05:33:53.783Z,5.00
2022-12-21T05:36:20.443Z,5.00
2022-12-21T05:38:47.062Z,5.00
2022-12-21T05:41:14.355Z,5.00
2022-12-21T05:43:40.990Z,5.00
2022-12-21T05:46:09.226Z,5.10
2022-12-21T05:48:36.362Z,5.00
2022-12-21T05:51:06.685Z,5.00
2022-12-21T05:53:33.256Z,5.00
2022-12-21T05:55:59.835Z,5.00
2022-12-21T05:58:26.449Z,5.00
2022-12-21T06:00:53.808Z,5.00
2022-12-21T06:03:22.187Z,5.00
2022-12-21T06:05:48.869Z,5.00
2022-12-21T06:08:15.475Z,5.00
2022-12-21T06:10:42.078Z,5.00
2022-12-21T06:13:08.808Z,4.90
2022-12-21T06:15:35.544Z,5.00
2022-12-21T06:18:04.737Z,6.50
2022-12-21T06:20:32.165Z,5.00
2022-12-21T06:22:58.747Z,5.00
2022-12-21T06:25:25.353Z,5.00
2022-12-21T06:27:52.056Z,5.00
2022-12-21T06:30:18.664Z,5.50
2022-12-21T06:32:45.365Z,5.10
2022-12-21T06:35:12.023Z,5.10
2022-12-21T06:37:38.649Z,5.20
2022-12-21T06:40:05.631Z,5.20
2022-12-21T06:42:32.210Z,5.20
2022-12-21T06:44:58.819Z,5.20
2022-12-21T06:47:25.406Z,5.10
2022-12-21T06:49:54.318Z,5.10
2022-12-21T06:52:21.696Z,5.10
2022-12-21T06:54:48.338Z,5.10
2022-12-21T06:57:14.957Z,5.10
2022-12-21T06:59:41.558Z,5.10
2022-12-21T07:02:09.421Z,5.20
2022-12-21T07:04:36.315Z,5.10
2022-12-21T07:07:02.907Z,5.20
2022-12-21T07:09:29.512Z,8.00
2022-12-21T07:11:56.092Z,5.30
2022-12-21T07:14:22.665Z,5.40
2022-12-21T07:16:49.681Z,5.40
2022-12-21T07:19:16.241Z,5.30
2022-12-21T07:21:42.812Z,5.30
2022-12-21T07:24:10.499Z,5.30
2022-12-21T07:26:37.140Z,5.40
2022-12-21T07:29:03.750Z,6.30
2022-12-21T07:31:30.417Z,5.30
2022-12-21T07:33:57.139Z,5.30
2022-12-21T07:36:23.861Z,5.40
2022-12-21T07:38:50.476Z,5.40
2022-12-21T07:41:17.405Z,5.40
2022-12-21T07:43:44.399Z,5.40
2022-12-21T07:46:11.125Z,5.50
2022-12-21T07:48:38.054Z,5.50
2022-12-21T07:51:04.792Z,5.50
2022-12-21T07:53:31.526Z,5.40
2022-12-21T07:56:01.957Z,8.80
2022-12-21T07:58:28.688Z,5.50
2022-12-21T08:00:59.957Z,5.50
2022-12-21T08:03:29.503Z,5.50
2022-12-21T08:05:56.229Z,5.60
2022-12-21T08:08:22.799Z,5.60
2022-12-21T08:10:49.361Z,5.70
2022-12-21T08:13:16.082Z,5.90
2022-12-21T08:15:42.719Z,6.00
2022-12-21T08:18:10.835Z,6.10
2022-12-21T08:20:37.770Z,6.20
2022-12-21T08:23:04.429Z,6.30
2022-12-21T08:25:31.430Z,7.90
2022-12-21T08:27:58.514Z,6.40
2022-12-21T08:30:25.162Z,6.40
2022-12-21T08:32:51.820Z,6.40
2022-12-21T08:35:20.124Z,6.50
2022-12-21T08:37:46.936Z,6.70
2022-12-21T08:40:13.721Z,6.70
2022-12-21T08:42:40.486Z,6.80
2022-12-21T08:45:07.247Z,6.80
2022-12-21T08:47:33.845Z,6.90
2022-12-21T08:50:00.409Z,6.90
2022-12-21T08:52:26.983Z,7.00
2022-12-21T08:54:53.576Z,7.10
2022-12-21T08:57:20.230Z,7.10
2022-12-21T08:59:48.891Z,7.20
2022-12-21T09:02:15.914Z,9.70
2022-12-21T09:04:42.936Z,7.40
2022-12-21T09:07:09.839Z,7.40
2022-12-21T09:09:36.480Z,7.40
2022-12-21T09:12:03.232Z,7.40
2022-12-21T09:14:30.124Z,7.40
2022-12-21T09:16:56.954Z,7.50
2022-12-21T09:19:24.500Z,7.40
2022-12-21T09:21:51.191Z,7.50
2022-12-21T09:24:18.528Z,7.50
2022-12-21T09:26:45.159Z,7.50
2022-12-21T09:29:11.867Z,7.60
2022-12-21T09:31:38.630Z,7.70
2022-12-21T09:34:05.367Z,8.60
2022-12-21T09:36:37.269Z,7.80
2022-12-21T09:39:16.869Z,7.90
2022-12-21T09:41:43.460Z,8.00
2022-12-21T09:44:22.318Z,8.20
2022-12-21T09:46:54.430Z,8.30
2022-12-21T09:49:22.586Z,8.30
2022-12-21T09:52:00.387Z,8.40
2022-12-21T09:54:36.967Z,8.40
2022-12-21T09:57:04.858Z,8.50
2022-12-21T09:59:31.631Z,8.50
2022-12-21T10:02:17.210Z,8.50
2022-12-21T10:05:10.934Z,8.40
2022-12-21T10:07:53.796Z,8.50
2022-12-21T10:10:41.952Z,8.50
2022-12-21T10:13:17.770Z,8.50
2022-12-21T10:15:47.479Z,8.50
2022-12-21T10:18:14.723Z,8.60
2022-12-21T10:21:07.850Z,8.60
2022-12-21T10:23:36.529Z,8.70
2022-12-21T10:26:07.082Z,8.80
2022-12-21T10:28:36.761Z,8.90
2022-12-21T10:31:03.439Z,8.90
2022-12-21T10:33:30.160Z,9.10
2022-12-21T10:35:59.947Z,9.20
2022-12-21T10:38:28.700Z,9.20
2022-12-21T10:40:55.595Z,9.30
2022-12-21T10:43:22.696Z,9.40
2022-12-21T10:45:50.293Z,9.40
2022-12-21T10:48:16.874Z,9.50
2022-12-21T10:50:46.266Z,9.50
2022-12-21T10:53:28.867Z,9.50
2022-12-21T10:55:57.584Z,9.50
2022-12-21T10:58:25.849Z,9.50
2022-12-21T11:00:55.429Z,9.40
2022-12-21T11:03:23.636Z,9.50
2022-12-21T11:05:50.333Z,9.50
2022-12-21T11:08:23.820Z,9.50
2022-12-21T11:10:54.145Z,9.50
2022-12-21T11:13:23.351Z,9.40
2022-12-21T11:16:03.573Z,9.30
2022-12-21T11:18:34.320Z,9.20
2022-12-21T11:21:01.823Z,9.10
2022-12-21T11:23:28.555Z,9.10
2022-12-21T11:25:56.054Z,9.10
2022-12-21T11:28:23.028Z,9.20
2022-12-21T11:30:58.988Z,9.20
2022-12-21T11:33:26.512Z,9.20
2022-12-21T11:36:06.595Z,9.30
2022-12-21T11:38:37.000Z,9.30
2022-12-21T11:41:09.225Z,9.30
2022-12-21T11:43:44.427Z,9.30
2022-12-21T11:49:15.918Z,9.10
2022-12-21T11:51:47.337Z,9.10
2022-12-21T11:54:32.485Z,9.10
2022-12-21T11:57:02.076Z,9.10
2022-12-21T11:59:31.757Z,9.10
2022-12-21T12:01:58.344Z,9.00
2022-12-21T12:04:37.222Z,9.10
2022-12-21T12:07:09.633Z,9.00
2022-12-21T12:09:55.073Z,9.00
2022-12-21T12:12:39.357Z,9.00
2022-12-21T12:15:09.084Z,9.00
2022-12-21T12:17:55.963Z,8.90
2022-12-21T12:20:41.366Z,8.90
2022-12-21T12:23:23.132Z,8.90
2022-12-21T12:25:57.269Z,8.80
2022-12-21T12:28:26.923Z,8.80
2022-12-21T12:31:09.399Z,8.90
2022-12-21T12:33:35.979Z,8.80
2022-12-21T12:36:15.491Z,8.80
2022-12-21T12:38:42.064Z,8.80
2022-12-21T12:41:27.438Z,11.00
2022-12-21T12:44:02.221Z,8.80
2022-12-21T12:46:47.692Z,6.10
2022-12-21T12:49:46.763Z,8.80
2022-12-21T12:52:22.379Z,8.80
2022-12-21T12:54:55.810Z,8.70
2022-12-21T12:57:33.821Z,8.80
2022-12-21T13:00:05.004Z,8.80
2022-12-21T13:02:38.204Z,8.80
2022-12-21T13:05:10.711Z,8.90
2022-12-21T13:08:00.612Z,8.90
2022-12-21T13:10:27.185Z,9.00
2022-12-21T13:13:01.835Z,9.10
2022-12-21T13:15:28.431Z,9.20
2022-12-21T13:18:01.227Z,9.90
2022-12-21T13:20:29.466Z,9.20
2022-12-21T13:23:00.749Z,9.60
2022-12-21T13:25:43.276Z,9.30
2022-12-21T13:28:16.304Z,9.40
2022-12-21T13:30:42.907Z,9.50
2022-12-21T13:33:12.439Z,9.50
2022-12-21T13:35:57.793Z,11.80
2022-12-21T13:38:37.542Z,9.60
2022-12-21T13:41:10.320Z,9.60
2022-12-21T13:44:18.273Z,9.50
2022-12-21T13:46:32.858Z,9.40
2022-12-21T13:49:17.480Z,9.40
2022-12-21T13:51:54.936Z,9.30
2022-12-21T13:54:24.560Z,9.20
2022-12-21T13:57:10.020Z,9.20
2022-12-21T13:59:50.521Z,9.20
2022-12-21T14:02:36.002Z,9.30
2022-12-21T14:05:12.629Z,9.20
2022-12-21T14:07:48.463Z,9.30
2022-12-21T14:10:31.828Z,9.30
2022-12-21T14:13:11.202Z,9.20
2022-12-21T14:15:43.777Z,9.20
2022-12-21T14:18:12.133Z,9.20
2022-12-21T14:20:39.307Z,9.20
2022-12-21T14:23:07.460Z,9.10
2022-12-21T14:25:35.931Z,9.00
2022-12-21T14:28:02.599Z,9.00
2022-12-21T14:30:34.818Z,9.00
2022-12-21T14:33:03.681Z,9.00
2022-12-21T14:35:41.956Z,8.80
2022-12-21T14:38:27.325Z,8.90
2022-12-21T14:40:58.021Z,8.90
2022-12-21T14:43:24.658Z,9.00
2022-12-21T14:45:51.390Z,8.90
2022-12-21T14:48:27.163Z,9.00
2022-12-21T14:51:02.496Z,9.00
2022-12-21T14:53:29.086Z,9.00
2022-12-21T14:56:08.059Z,9.00
2022-12-21T14:58:42.857Z,9.00
2022-12-21T15:01:13.816Z,9.00
2022-12-21T15:03:42.232Z,9.00
2022-12-21T15:06:10.523Z,8.90
2022-12-21T15:08:42.243Z,8.90
2022-12-21T15:11:19.304Z,8.90
2022-12-21T15:13:50.996Z,8.90
2022-12-21T15:16:19.844Z,9.00
2022-12-21T15:18:58.924Z,8.80
2022-12-21T15:22:03.997Z,8.80
2022-12-21T15:24:32.414Z,8.70
2022-12-21T15:27:09.007Z,8.70
2022-12-21T15:29:41.884Z,8.70
2022-12-21T15:32:16.080Z,8.70
2022-12-21T15:34:46.222Z,10.60
2022-12-21T15:37:20.273Z,8.30
2022-12-21T15:39:47.880Z,8.20
2022-12-21T15:42:27.601Z,8.00
2022-12-21T15:44:54.164Z,7.80
2022-12-21T15:47:39.505Z,7.60
2022-12-21T15:50:15.621Z,7.50
2022-12-21T15:52:42.319Z,7.30
2022-12-21T15:55:12.914Z,7.20
2022-12-21T15:57:42.671Z,7.10
2022-12-21T16:00:12.722Z,7.00
2022-12-21T16:02:42.314Z,7.00
2022-12-21T16:05:12.999Z,6.90
2022-12-21T16:07:42.886Z,6.80
2022-12-21T16:10:14.875Z,6.80
2022-12-21T16:12:45.672Z,7.70
2022-12-21T16:15:21.162Z,6.70
2022-12-21T16:17:47.855Z,6.70
2022-12-21T16:20:21.207Z,6.70
2022-12-21T16:22:47.805Z,6.70
2022-12-21T16:25:33.499Z,6.90
2022-12-21T16:28:03.080Z,6.60
2022-12-21T16:30:29.695Z,6.60
2022-12-21T16:32:56.939Z,9.50
2022-12-21T16:35:29.687Z,6.60
2022-12-21T16:37:56.735Z,6.60
2022-12-21T16:40:24.965Z,6.60
2022-12-21T16:42:59.604Z,6.60
2022-12-21T16:45:48.813Z,6.70
2022-12-21T16:48:15.367Z,6.70
2022-12-21T16:50:49.696Z,6.70
2022-12-21T16:53:34.763Z,6.70
2022-12-21T16:56:16.697Z,6.70
2022-12-21T16:58:50.513Z,6.70
2022-12-21T17:01:22.342Z,6.70
2022-12-21T17:03:57.080Z,6.70
2022-12-21T17:06:50.419Z,6.70
2022-12-21T17:09:22.371Z,6.70
2022-12-21T17:12:09.999Z,6.80
2022-12-21T17:14:40.287Z,6.80
2022-12-21T17:17:15.447Z,9.60
2022-12-21T17:19:54.553Z,6.80
2022-12-21T17:22:22.463Z,6.80
2022-12-21T17:25:10.791Z,6.80
2022-12-21T17:28:06.486Z,6.80
2022-12-21T17:30:41.431Z,6.80
2022-12-21T17:33:26.214Z,6.70
2022-12-21T17:35:53.369Z,6.70
2022-12-21T17:38:20.374Z,6.70
2022-12-21T17:40:47.078Z,6.70
2022-12-21T17:43:13.962Z,7.70
2022-12-21T17:45:40.869Z,6.70
2022-12-21T17:48:10.889Z,6.60
2022-12-21T17:50:41.665Z,6.60
2022-12-21T17:53:15.914Z,6.50
2022-12-21T17:55:42.549Z,6.50
2022-12-21T17:58:09.140Z,6.40
2022-12-21T18:00:35.978Z,6.40
2022-12-21T18:03:06.139Z,7.20
2022-12-21T18:05:33.093Z,6.40
2022-12-21T18:08:00.903Z,7.20
2022-12-21T18:10:32.701Z,6.50
2022-12-21T18:13:00.204Z,6.60
2022-12-21T18:15:28.061Z,6.70
2022-12-21T18:17:56.921Z,6.70
2022-12-21T18:20:24.356Z,6.70
2022-12-21T18:22:51.383Z,6.70
2022-12-21T18:25:19.516Z,6.80
2022-12-21T18:27:46.454Z,6.80
2022-12-21T18:30:18.033Z,6.80
2022-12-21T18:32:46.023Z,6.80
2022-12-21T18:35:14.795Z,6.80
2022-12-21T18:37:41.377Z,6.80
2022-12-21T18:40:18.896Z,6.90
2022-12-21T18:42:46.129Z,6.90
2022-12-21T18:45:12.719Z,6.90
2022-12-21T18:47:39.481Z,6.90
2022-12-21T18:50:12.042Z,7.00
2022-12-21T18:52:39.188Z,7.10
2022-12-21T18:55:13.063Z,7.30
2022-12-21T18:57:39.698Z,7.40
2022-12-21T19:00:06.792Z,7.50
2022-12-21T19:02:33.612Z,7.70
2022-12-21T19:05:02.004Z,7.70
2022-12-21T19:07:28.653Z,7.80
2022-12-21T19:09:55.249Z,7.90
2022-12-21T19:12:21.843Z,7.90
2022-12-21T19:14:48.437Z,9.60
2022-12-21T19:17:20.209Z,8.00
2022-12-21T19:19:47.804Z,8.10
2022-12-21T19:22:25.049Z,8.00
2022-12-21T19:24:52.796Z,8.20
2022-12-21T19:27:19.432Z,8.20
2022-12-21T19:29:46.183Z,8.30
2022-12-21T19:32:14.211Z,8.20
2022-12-21T19:34:40.905Z,8.20
2022-12-21T19:37:07.495Z,8.20
2022-12-21T19:39:39.207Z,8.20
2022-12-21T19:42:13.243Z,8.20
2022-12-21T19:44:39.979Z,8.20
2022-12-21T19:47:06.943Z,8.20
2022-12-21T19:49:35.798Z,8.20
2022-12-21T19:52:02.756Z,8.20
2022-12-21T19:54:29.363Z,8.20
2022-12-21T19:56:57.410Z,8.20
2022-12-21T19:59:25.963Z,9.10
2022-12-21T20:01:53.679Z,8.30
2022-12-21T20:04:24.663Z,8.40
2022-12-21T20:06:51.244Z,8.30
2022-12-21T20:09:22.760Z,8.30
2022-12-21T20:11:49.621Z,8.30
2022-12-21T20:14:26.498Z,8.30
2022-12-21T20:16:53.165Z,8.30
2022-12-21T20:19:20.536Z,8.30
2022-12-21T20:21:47.115Z,8.20
2022-12-21T20:24:13.711Z,8.10
2022-12-21T20:26:40.409Z,8.10
2022-12-21T20:29:12.441Z,8.10
2022-12-21T20:31:41.053Z,8.00
2022-12-21T20:34:07.783Z,8.00
2022-12-21T20:36:35.754Z,8.00
2022-12-21T20:39:03.921Z,8.00
2022-12-21T20:41:50.714Z,8.00
2022-12-21T20:44:18.020Z,8.10
2022-12-21T20:46:44.960Z,8.10
2022-12-21T20:49:16.147Z,8.10
2022-12-21T20:51:43.027Z,8.10
